createdAt,value
2022-11-24T00:02:22.239Z,1.50
2022-11-24T00:05:09.644Z,1.83
2022-11-24T00:07:57.526Z,1.60
2022-11-24T00:10:45.212Z,1.93
2022-11-24T00:13:33.807Z,2.10
2022-11-24T00:16:22.810Z,1.50
2022-11-24T00:19:11.997Z,1.40
2022-11-24T00:22:02.397Z,1.47
2022-11-24T00:24:50.342Z,1.67
2022-11-24T00:27:37.747Z,1.50
2022-11-24T00:30:27.238Z,1.63
2022-11-24T00:33:15.132Z,1.60
2022-11-24T00:36:02.547Z,1.60
2022-11-24T00:38:54.826Z,1.83
2022-11-24T00:41:42.792Z,1.70
2022-11-24T00:44:30.677Z,1.70
2022-11-24T00:47:18.215Z,1.23
2022-11-24T00:50:06.359Z,1.53
2022-11-24T00:52:54.246Z,1.70
2022-11-24T00:55:41.633Z,1.43
2022-11-24T00:58:29.510Z,1.43
2022-11-24T01:01:18.328Z,1.70
2022-11-24T01:04:06.324Z,1.80
2022-11-24T01:06:54.184Z,1.60
2022-11-24T01:09:43.643Z,1.20
2022-11-24T01:12:31.832Z,1.13
2022-11-24T01:15:19.726Z,1.50
2022-11-24T01:18:06.962Z,1.20
2022-11-24T01:20:54.636Z,1.40
2022-11-24T01:23:42.646Z,1.50
2022-11-24T01:26:30.534Z,1.77
2022-11-24T01:29:17.982Z,1.43
2022-11-24T01:32:05.837Z,1.33
2022-11-24T01:34:53.252Z,1.30
2022-11-24T01:37:41.115Z,1.47
2022-11-24T01:40:28.512Z,1.67
2022-11-24T01:43:20.546Z,1.53
2022-11-24T01:46:14.092Z,1.47
2022-11-24T01:49:08.213Z,1.77
2022-11-24T01:52:00.630Z,1.20
2022-11-24T01:54:51.125Z,1.20
2022-11-24T01:57:41.878Z,1.30
2022-11-24T02:00:29.837Z,1.20
2022-11-24T02:03:20.579Z,1.20
2022-11-24T02:06:14.792Z,1.00
2022-11-24T02:09:07.125Z,1.43
2022-11-24T02:11:55.856Z,1.07
2022-11-24T02:14:44.330Z,1.07
2022-11-24T02:17:31.531Z,1.00
2022-11-24T02:20:19.581Z,1.27
2022-11-24T02:23:21.470Z,1.17
2022-11-24T02:26:09.303Z,0.90
2022-11-24T02:28:57.006Z,1.23
2022-11-24T02:31:48.013Z,0.90
2022-11-24T02:34:35.815Z,1.00
2022-11-24T02:37:23.731Z,1.23
2022-11-24T02:40:11.389Z,0.67
2022-11-24T02:43:02.602Z,1.10
2022-11-24T02:45:50.240Z,1.00
2022-11-24T02:48:37.967Z,1.00
2022-11-24T02:51:25.662Z,0.80
2022-11-24T02:54:13.547Z,0.87
2022-11-24T02:57:01.228Z,1.00
2022-11-24T02:59:49.115Z,0.90
2022-11-24T03:02:37.044Z,0.77
2022-11-24T03:05:24.629Z,0.50
2022-11-24T03:08:13.388Z,0.90
2022-11-24T03:11:02.369Z,1.20
2022-11-24T03:13:50.146Z,0.67
2022-11-24T03:16:39.079Z,0.70
2022-11-24T03:19:26.495Z,1.10
2022-11-24T03:22:14.766Z,0.90
2022-11-24T03:25:02.718Z,1.10
2022-11-24T03:27:49.949Z,0.90
2022-11-24T03:30:37.843Z,0.77
2022-11-24T03:33:25.224Z,0.90
2022-11-24T03:36:13.219Z,0.70
2022-11-24T03:39:01.085Z,1.00
2022-11-24T03:41:51.799Z,0.87
2022-11-24T03:44:39.184Z,0.60
2022-11-24T03:47:27.094Z,0.90
2022-11-24T03:50:14.529Z,0.80
2022-11-24T03:53:02.412Z,0.77
2022-11-24T03:55:49.798Z,0.60
2022-11-24T03:58:37.676Z,0.83
2022-11-24T04:01:24.938Z,1.00
2022-11-24T04:04:13.605Z,0.80
2022-11-24T04:07:01.504Z,0.83
2022-11-24T04:09:48.690Z,1.07
2022-11-24T04:12:45.863Z,0.93
2022-11-24T04:15:33.733Z,1.10
2022-11-24T04:18:21.963Z,0.90
2022-11-24T04:21:09.428Z,1.10
2022-11-24T04:23:57.294Z,0.90
2022-11-24T04:26:44.480Z,0.87
2022-11-24T04:29:32.357Z,0.90
2022-11-24T04:32:19.570Z,1.03
2022-11-24T04:35:07.696Z,0.70
2022-11-24T04:37:55.111Z,1.00
2022-11-24T04:40:42.993Z,1.00
2022-11-24T04:43:30.609Z,0.80
2022-11-24T04:46:18.478Z,1.00
2022-11-24T04:49:06.002Z,0.87
2022-11-24T04:51:53.699Z,0.93
2022-11-24T04:54:41.156Z,0.83
2022-11-24T04:57:29.256Z,0.63
2022-11-24T05:00:16.600Z,1.03
2022-11-24T05:03:04.595Z,1.27
2022-11-24T05:05:51.997Z,1.07
2022-11-24T05:08:39.933Z,1.00
2022-11-24T05:11:27.812Z,1.10
2022-11-24T05:14:15.708Z,1.20
2022-11-24T05:17:03.131Z,1.17
2022-11-24T05:19:50.508Z,1.17
2022-11-24T05:22:38.186Z,0.90
2022-11-24T05:25:26.160Z,1.30
2022-11-24T05:28:14.021Z,1.70
2022-11-24T05:31:02.880Z,1.43
2022-11-24T05:33:50.796Z,1.80
2022-11-24T05:36:53.161Z,1.30
2022-11-24T05:39:41.104Z,1.30
2022-11-24T05:42:46.103Z,1.23
2022-11-24T05:45:34.771Z,0.90
2022-11-24T05:48:22.316Z,1.47
2022-11-24T05:51:10.240Z,1.30
2022-11-24T05:53:58.170Z,1.90
2022-11-24T05:56:46.098Z,1.30
2022-11-24T05:59:34.343Z,1.20
2022-11-24T06:02:22.404Z,1.50
2022-11-24T06:05:09.832Z,1.57
2022-11-24T06:07:57.805Z,1.40
2022-11-24T06:10:45.260Z,1.63
2022-11-24T06:13:33.246Z,2.00
2022-11-24T06:16:20.655Z,1.53
2022-11-24T06:19:08.597Z,1.90
2022-11-24T06:21:56.249Z,1.70
2022-11-24T06:24:44.065Z,1.40
2022-11-24T06:27:32.906Z,1.27
2022-11-24T06:30:20.376Z,1.20
2022-11-24T06:33:08.275Z,2.07
2022-11-24T06:36:01.394Z,1.60
2022-11-24T06:38:49.404Z,1.43
2022-11-24T06:41:37.280Z,1.20
2022-11-24T06:44:24.791Z,2.27
2022-11-24T06:47:12.691Z,1.80
2022-11-24T06:50:00.168Z,1.63
2022-11-24T06:52:48.094Z,1.30
2022-11-24T06:55:35.917Z,1.40
2022-11-24T06:58:23.827Z,1.63
2022-11-24T07:01:14.937Z,1.43
2022-11-24T07:04:02.878Z,2.10
2022-11-24T07:06:50.287Z,1.80
2022-11-24T07:09:38.188Z,2.27
2022-11-24T07:12:25.607Z,1.73
2022-11-24T07:15:14.699Z,1.50
2022-11-24T07:18:02.438Z,1.60
2022-11-24T07:20:49.853Z,1.33
2022-11-24T07:23:38.466Z,1.53
2022-11-24T07:26:26.480Z,2.20
2022-11-24T07:29:14.380Z,1.43
2022-11-24T07:32:05.472Z,1.50
2022-11-24T07:34:53.325Z,1.60
2022-11-24T07:37:40.771Z,1.37
2022-11-24T07:40:28.377Z,1.63
2022-11-24T07:43:20.096Z,0.80
2022-11-24T07:46:08.629Z,1.63
2022-11-24T07:48:56.577Z,1.50
2022-11-24T07:51:44.499Z,1.53
2022-11-24T07:54:33.378Z,1.30
2022-11-24T07:57:21.700Z,1.10
2022-11-24T08:00:10.363Z,1.40
2022-11-24T08:02:58.218Z,1.40
2022-11-24T08:06:22.253Z,1.17
2022-11-24T08:09:01.377Z,1.30
2022-11-24T08:11:48.855Z,1.30
2022-11-24T08:14:36.685Z,0.90
2022-11-24T08:17:24.390Z,1.60
2022-11-24T08:20:12.456Z,1.50
2022-11-24T08:23:00.800Z,1.73
2022-11-24T08:25:51.742Z,1.20
2022-11-24T08:28:43.682Z,1.10
2022-11-24T08:31:33.323Z,1.20
2022-11-24T08:34:20.814Z,1.40
2022-11-24T08:37:08.261Z,1.33
2022-11-24T08:39:55.696Z,1.40
2022-11-24T08:42:43.223Z,1.37
2022-11-24T08:45:31.422Z,1.00
2022-11-24T08:48:20.325Z,1.13
2022-11-24T08:51:08.985Z,1.70
2022-11-24T08:53:58.386Z,1.00
2022-11-24T08:56:46.179Z,1.77
2022-11-24T08:59:34.092Z,1.43
2022-11-24T09:02:21.546Z,1.07
2022-11-24T09:05:28.819Z,0.90
2022-11-24T09:08:16.850Z,1.53
2022-11-24T09:11:06.462Z,1.27
2022-11-24T09:13:54.610Z,1.03
2022-11-24T09:16:42.049Z,1.77
2022-11-24T09:19:29.517Z,1.00
2022-11-24T09:22:19.116Z,1.30
2022-11-24T09:25:07.311Z,1.40
2022-11-24T09:27:55.394Z,1.40
2022-11-24T09:30:42.876Z,1.43
2022-11-24T09:33:30.687Z,1.30
2022-11-24T09:36:18.209Z,1.30
2022-11-24T09:39:05.815Z,1.00
2022-11-24T09:41:56.725Z,1.33
2022-11-24T09:44:47.351Z,1.07
2022-11-24T09:47:53.670Z,1.50
2022-11-24T09:50:40.964Z,1.10
2022-11-24T09:53:38.073Z,1.47
2022-11-24T09:56:27.402Z,1.30
2022-11-24T09:59:15.591Z,1.27
2022-11-24T10:02:03.592Z,1.27
2022-11-24T10:04:52.911Z,1.53
2022-11-24T10:08:00.625Z,1.33
2022-11-24T10:10:56.158Z,1.10
2022-11-24T10:14:00.324Z,0.90
2022-11-24T10:16:48.233Z,0.90
2022-11-24T10:19:41.962Z,0.80
2022-11-24T10:22:43.548Z,1.33
2022-11-24T10:25:52.337Z,0.90
2022-11-24T10:28:49.162Z,1.00
2022-11-24T10:31:37.505Z,0.97
2022-11-24T10:34:35.096Z,0.90
2022-11-24T10:37:28.267Z,1.00
2022-11-24T10:43:44.690Z,1.07
2022-11-24T10:46:37.868Z,1.10
2022-11-24T10:49:29.021Z,1.13
2022-11-24T10:52:17.226Z,1.17
2022-11-24T10:55:06.866Z,0.90
2022-11-24T10:57:54.266Z,0.73
2022-11-24T11:00:41.689Z,0.80
2022-11-24T11:03:32.646Z,1.30
2022-11-24T11:06:24.812Z,1.30
2022-11-24T11:09:16.780Z,1.00
2022-11-24T11:12:36.221Z,1.10
2022-11-24T11:15:30.492Z,0.87
2022-11-24T11:18:20.631Z,1.00
2022-11-24T11:21:08.286Z,1.00
2022-11-24T11:23:56.536Z,1.10
2022-11-24T11:26:44.913Z,1.10
2022-11-24T11:36:02.614Z,1.30
2022-11-24T11:38:50.607Z,1.37
2022-11-24T11:41:40.784Z,1.20
2022-11-24T11:44:34.626Z,1.23
2022-11-24T11:47:25.022Z,0.90
2022-11-24T11:50:17.251Z,1.10
2022-11-24T11:53:13.765Z,1.10
2022-11-24T11:56:01.427Z,1.50
2022-11-24T11:58:57.348Z,1.30
2022-11-24T12:01:57.465Z,1.27
2022-11-24T12:04:48.729Z,1.60
2022-11-24T12:07:39.659Z,1.50
2022-11-24T12:10:49.315Z,1.60
2022-11-24T12:13:49.584Z,1.20
2022-11-24T12:16:55.291Z,1.63
2022-11-24T12:20:21.929Z,1.23
2022-11-24T12:23:34.009Z,0.97
2022-11-24T12:26:36.392Z,1.03
2022-11-24T12:29:33.117Z,1.27
2022-11-24T12:32:50.344Z,1.10
2022-11-24T12:35:43.668Z,1.47
2022-11-24T12:38:50.369Z,1.40
2022-11-24T12:41:42.467Z,1.10
2022-11-24T12:44:33.612Z,1.60
2022-11-24T12:47:23.654Z,1.97
2022-11-24T12:50:14.783Z,1.67
2022-11-24T12:53:14.311Z,1.40
2022-11-24T12:56:10.383Z,1.70
2022-11-24T12:59:07.078Z,1.60
2022-11-24T13:02:05.022Z,1.53
2022-11-24T13:04:52.389Z,1.43
2022-11-24T13:07:47.557Z,1.40
2022-11-24T13:10:56.269Z,1.57
2022-11-24T13:14:01.005Z,1.37
2022-11-24T13:17:21.831Z,1.73
2022-11-24T13:20:19.635Z,1.60
2022-11-24T13:23:10.733Z,1.53
2022-11-24T13:26:28.183Z,1.70
2022-11-24T13:29:28.173Z,1.50
2022-11-24T13:32:15.885Z,1.83
2022-11-24T13:35:04.773Z,2.00
2022-11-24T13:37:52.789Z,2.07
2022-11-24T13:40:54.321Z,1.83
2022-11-24T13:44:07.453Z,1.80
2022-11-24T13:47:06.295Z,1.50
2022-11-24T13:49:54.836Z,1.70
2022-11-24T13:52:50.537Z,1.80
2022-11-24T13:55:39.680Z,1.23
2022-11-24T13:58:30.931Z,1.40
2022-11-24T14:01:47.856Z,1.37
2022-11-24T14:04:39.905Z,1.30
2022-11-24T14:07:33.329Z,1.57
2022-11-24T14:10:23.319Z,1.80
2022-11-24T14:13:37.644Z,2.20
2022-11-24T14:16:25.973Z,2.47
2022-11-24T14:19:20.041Z,1.70
2022-11-24T14:22:13.133Z,2.10
2022-11-24T14:25:02.524Z,2.07
2022-11-24T14:27:49.772Z,1.90
2022-11-24T14:30:37.698Z,2.20
2022-11-24T14:33:26.120Z,1.83
2022-11-24T14:36:17.596Z,1.50
2022-11-24T14:39:05.237Z,1.30
2022-11-24T14:41:54.516Z,1.00
2022-11-24T14:44:42.416Z,1.20
2022-11-24T14:47:37.764Z,1.30
2022-11-24T14:50:25.789Z,1.23
2022-11-24T14:53:15.798Z,1.53
2022-11-24T14:56:22.346Z,1.20
2022-11-24T14:59:23.343Z,0.80
2022-11-24T15:02:30.122Z,1.20
2022-11-24T15:05:18.021Z,1.20
2022-11-24T15:08:05.624Z,1.00
2022-11-24T15:10:58.490Z,0.83
2022-11-24T15:13:54.398Z,1.07
2022-11-24T15:16:42.383Z,1.20
2022-11-24T15:19:33.062Z,2.00
2022-11-24T15:22:29.810Z,2.33
2022-11-24T15:25:29.876Z,2.47
2022-11-24T15:28:17.357Z,1.90
2022-11-24T15:31:11.557Z,2.97
2022-11-24T15:33:59.498Z,3.40
2022-11-24T15:36:47.409Z,2.37
2022-11-24T15:39:34.822Z,3.07
2022-11-24T15:42:22.301Z,1.50
2022-11-24T15:45:10.717Z,2.13
2022-11-24T15:47:58.158Z,1.90
2022-11-24T15:50:46.698Z,1.50
2022-11-24T15:53:34.112Z,1.50
2022-11-24T15:56:24.882Z,1.47
2022-11-24T15:59:20.400Z,1.40
2022-11-24T16:02:09.559Z,1.40
2022-11-24T16:04:56.981Z,1.80
2022-11-24T16:07:45.232Z,1.40
2022-11-24T16:10:35.352Z,1.47
2022-11-24T16:13:22.973Z,1.53
2022-11-24T16:16:13.854Z,1.27
2022-11-24T16:19:01.457Z,1.60
2022-11-24T16:21:50.044Z,1.40
2022-11-24T16:24:37.459Z,1.33
2022-11-24T16:27:25.332Z,2.03
2022-11-24T16:30:13.627Z,1.70
2022-11-24T16:33:04.345Z,1.43
2022-11-24T16:35:52.306Z,1.30
2022-11-24T16:38:40.059Z,1.40
2022-11-24T16:41:27.761Z,1.87
2022-11-24T16:44:15.656Z,1.77
2022-11-24T16:47:03.800Z,2.43
2022-11-24T16:49:51.671Z,2.07
2022-11-24T16:52:39.663Z,1.97
2022-11-24T16:55:27.237Z,1.70
2022-11-24T16:58:14.974Z,1.80
2022-11-24T17:01:10.413Z,2.23
2022-11-24T17:03:58.248Z,2.23
2022-11-24T17:06:45.637Z,2.40
2022-11-24T17:09:38.894Z,2.70
2022-11-24T17:12:28.202Z,2.10
2022-11-24T17:15:32.570Z,1.90
2022-11-24T17:18:24.995Z,3.37
2022-11-24T17:21:14.916Z,5.53
2022-11-24T17:24:05.292Z,4.80
2022-11-24T17:26:53.336Z,4.40
2022-11-24T17:29:41.307Z,4.07
2022-11-24T17:32:28.753Z,3.17
2022-11-24T17:35:18.149Z,3.73
2022-11-24T17:38:05.700Z,3.93
2022-11-24T17:40:53.106Z,5.23
2022-11-24T17:43:41.425Z,4.00
2022-11-24T17:46:29.194Z,3.40
2022-11-24T17:49:17.118Z,3.90
2022-11-24T17:52:05.054Z,3.93
2022-11-24T17:54:52.943Z,3.47
2022-11-24T17:57:40.342Z,3.10
2022-11-24T18:00:28.313Z,4.47
2022-11-24T18:03:15.685Z,3.37
2022-11-24T18:06:06.470Z,3.30
2022-11-24T18:08:54.441Z,3.57
2022-11-24T18:11:42.320Z,3.53
2022-11-24T18:14:29.707Z,2.70
2022-11-24T18:17:17.613Z,3.43
2022-11-24T18:20:05.224Z,2.17
2022-11-24T18:23:08.547Z,2.30
2022-11-24T18:26:00.114Z,2.50
2022-11-24T18:28:48.022Z,3.03
2022-11-24T18:31:36.061Z,2.50
2022-11-24T18:34:25.197Z,2.40
2022-11-24T18:37:14.737Z,2.43
2022-11-24T18:40:02.624Z,2.00
2022-11-24T18:42:50.111Z,2.17
2022-11-24T18:45:39.196Z,2.10
2022-11-24T18:48:27.346Z,2.40
2022-11-24T18:51:15.295Z,2.23
2022-11-24T18:54:04.684Z,1.77
2022-11-24T18:56:52.109Z,1.90
2022-11-24T18:59:39.553Z,1.90
2022-11-24T19:02:27.328Z,1.90
2022-11-24T19:05:14.775Z,1.37
2022-11-24T19:08:02.686Z,1.67
2022-11-24T19:10:50.069Z,1.70
2022-11-24T19:13:37.987Z,2.00
2022-11-24T19:16:26.025Z,1.70
2022-11-24T19:19:13.437Z,2.77
2022-11-24T19:22:02.031Z,2.23
2022-11-24T19:24:50.793Z,2.23
2022-11-24T19:27:38.721Z,1.97
2022-11-24T19:30:26.382Z,2.53
2022-11-24T19:33:14.181Z,3.27
2022-11-24T19:36:02.414Z,3.37
2022-11-24T19:38:51.438Z,3.00
2022-11-24T19:41:39.345Z,3.20
2022-11-24T19:44:26.896Z,3.40
2022-11-24T19:47:14.327Z,3.23
2022-11-24T19:50:06.048Z,3.47
2022-11-24T19:52:56.926Z,2.80
2022-11-24T19:55:44.667Z,3.67
2022-11-24T19:58:32.813Z,3.70
2022-11-24T20:01:31.019Z,2.90
2022-11-24T20:04:20.341Z,3.63
2022-11-24T20:07:08.326Z,2.60
2022-11-24T20:09:55.739Z,2.70
2022-11-24T20:12:43.613Z,2.70
2022-11-24T20:15:30.796Z,3.53
2022-11-24T20:18:18.513Z,2.53
2022-11-24T20:21:06.971Z,2.80
2022-11-24T20:23:55.712Z,2.03
2022-11-24T20:26:44.492Z,3.23
2022-11-24T20:29:34.395Z,2.70
2022-11-24T20:32:21.862Z,3.70
2022-11-24T20:35:15.016Z,4.30
2022-11-24T20:38:05.345Z,4.60
2022-11-24T20:40:52.789Z,4.90
2022-11-24T20:43:40.540Z,4.83
2022-11-24T20:46:31.961Z,4.27
2022-11-24T20:49:22.339Z,4.23
2022-11-24T20:52:10.750Z,4.47
2022-11-24T20:55:00.332Z,4.50
2022-11-24T20:57:48.142Z,5.20
2022-11-24T21:00:36.040Z,4.40
2022-11-24T21:03:23.833Z,4.50
2022-11-24T21:06:12.297Z,4.93
2022-11-24T21:09:03.782Z,4.97
2022-11-24T21:11:51.843Z,3.87
2022-11-24T21:14:40.376Z,4.43
2022-11-24T21:17:27.999Z,4.47
2022-11-24T21:20:15.418Z,3.50
2022-11-24T21:23:03.718Z,3.50
2022-11-24T21:25:51.590Z,3.53
2022-11-24T21:28:39.304Z,3.20
2022-11-24T21:31:27.049Z,3.53
2022-11-24T21:34:16.413Z,3.60
2022-11-24T21:37:04.054Z,4.13
2022-11-24T21:39:51.585Z,3.70
2022-11-24T21:42:39.518Z,3.87
2022-11-24T21:45:29.174Z,3.50
2022-11-24T21:48:17.277Z,3.60
2022-11-24T21:51:07.164Z,3.20
2022-11-24T21:53:55.116Z,3.20
2022-11-24T21:56:42.302Z,3.80
2022-11-24T21:59:29.981Z,3.27
2022-11-24T22:02:17.421Z,3.10
2022-11-24T22:05:05.195Z,2.80
2022-11-24T22:07:52.839Z,2.67
2022-11-24T22:10:40.703Z,3.00
2022-11-24T22:13:27.967Z,2.67
2022-11-24T22:16:20.135Z,2.83
2022-11-24T22:19:08.268Z,3.00
2022-11-24T22:21:56.278Z,2.60
2022-11-24T22:24:43.892Z,2.23
2022-11-24T22:27:31.123Z,2.70
2022-11-24T22:30:18.584Z,2.67
2022-11-24T22:33:06.012Z,3.10
2022-11-24T22:35:56.968Z,3.20
2022-11-24T22:38:44.845Z,3.30
2022-11-24T22:41:33.344Z,2.80
2022-11-24T22:44:21.205Z,3.00
2022-11-24T22:47:08.600Z,2.07
2022-11-24T22:49:56.480Z,2.60
2022-11-24T22:52:44.392Z,2.80
2022-11-24T22:55:31.590Z,2.47
2022-11-24T22:58:19.455Z,2.23
2022-11-24T23:01:09.513Z,2.73
2022-11-24T23:03:57.799Z,2.00
2022-11-24T23:06:45.851Z,1.87
2022-11-24T23:09:34.300Z,1.80
2022-11-24T23:12:22.467Z,1.70
2022-11-24T23:15:10.509Z,1.50
2022-11-24T23:17:58.752Z,2.53
2022-11-24T23:20:46.521Z,2.00
2022-11-24T23:23:34.752Z,2.20
2022-11-24T23:26:23.812Z,1.80
2022-11-24T23:29:12.310Z,2.20
2022-11-24T23:31:59.787Z,2.50
2022-11-24T23:34:47.628Z,1.57
2022-11-24T23:38:00.035Z,1.90
2022-11-24T23:40:42.887Z,2.43
2022-11-24T23:43:31.077Z,1.97
2022-11-24T23:46:23.003Z,2.60
2022-11-24T23:49:10.939Z,2.17
2022-11-24T23:51:58.852Z,2.17
2022-11-24T23:54:46.722Z,2.23
2022-11-24T23:57:34.660Z,2.10
